Impacts METAR Board INFO
IDs:

KPHX - Phoenix/Sky Harbor, AZ, US

Updated at: 0715 UTC 13 Dec 2017
Potential Impact None Slight Moderate High
Time12/19Z 12/20Z 12/21Z 12/22Z 12/23Z 13/00Z 13/01Z 13/02Z 13/03Z 13/04Z 13/05Z 13/06Z 13/07Z
VIS10 10 10 10 10 10 10 10 10 10 10 10 10
CIG-- 240 240 240 250 250 230 250 290 290 290 290 250
CoverSCTBKNBKNBKNBKNBKNBKNBKNBKNBKNBKNBKNBKN
FltCatVFRVFRVFRVFRVFRVFRVFRVFRVFRVFRVFRVFRVFR
WX--------------------------
WDir7080100705090509090110907070
WSpd9 8 5 7 6 6 5 5 6 7 3 9 11
WGst-- -- -- -- -- -- -- -- -- -- -- -- --
Raw hourly METARs
KPHX 121851Z 07009KT 10SM FEW180 SCT240 22/M14 A3019 RMK AO2 SLP216 T02221139
KPHX 121951Z 08008KT 10SM FEW180 BKN240 23/M15 A3015 RMK AO2 SLP202 T02281150
KPHX 122051Z 10005KT 10SM FEW180 BKN240 24/M13 A3012 RMK AO2 SLP190 T02391128 56040
KPHX 122151Z 07007KT 10SM FEW180 BKN240 24/M13 A3009 RMK AO2 SLP181 T02391128
KPHX 122251Z 05006KT 10SM FEW200 BKN250 BKN290 23/M12 A3008 RMK AO2 SLP176 T02331122
KPHX 122351Z 09006KT 10SM FEW200 BKN250 BKN290 22/M12 A3007 RMK AO2 SLP172 T02171117 10239 20211 56017
KPHX 130051Z 05005KT 10SM FEW170 BKN230 BKN290 21/M12 A3007 RMK AO2 SLP172 T02061117
KPHX 130151Z 09005KT 10SM BKN250 18/M11 A3007 RMK AO2 SLP174 T01831106
KPHX 130251Z 09006KT 10SM SCT250 BKN290 18/M12 A3006 RMK AO2 SLP175 T01831122 58000
KPHX 130351Z 11007KT 10SM SCT250 BKN290 18/M12 A3007 RMK AO2 SLP175 T01781122
KPHX 130451Z 09003KT 10SM SCT250 BKN290 17/M12 A3006 RMK AO2 SLP172 T01671117
KPHX 130551Z 07009KT 10SM SCT250 BKN290 17/M12 A3006 RMK AO2 SLP167 T01721122 10222 20150 58002
KPHX 130651Z 07011KT 10SM BKN250 18/M13 A3005 RMK AO2 SLP165 T01781128 402390078